createdAt,value
2022-12-23T00:01:54.079Z,2.27
2022-12-23T00:04:54.007Z,2.27
2022-12-23T00:07:54.020Z,2.29
2022-12-23T00:10:55.018Z,2.23
2022-12-23T00:14:20.112Z,2.25
2022-12-23T00:17:23.207Z,2.33
2022-12-23T00:20:25.058Z,2.35
2022-12-23T00:23:25.046Z,2.37
2022-12-23T00:26:33.020Z,2.40
2022-12-23T00:29:33.035Z,2.42
2022-12-23T00:32:32.985Z,2.44
2022-12-23T00:35:33.130Z,2.48
2022-12-23T00:38:50.995Z,2.34
2022-12-23T00:42:09.019Z,2.49
2022-12-23T00:45:22.036Z,2.53
2022-12-23T00:48:39.994Z,2.56
2022-12-23T00:51:40.004Z,2.59
2022-12-23T00:54:40.020Z,2.60
2022-12-23T00:57:39.998Z,2.61
2022-12-23T01:00:58.057Z,2.62
2022-12-23T01:04:17.020Z,2.66
2022-12-23T01:07:18.005Z,2.64
2022-12-23T01:10:18.013Z,2.59
2022-12-23T01:13:18.005Z,2.61
2022-12-23T01:16:21.097Z,2.65
2022-12-23T01:19:21.023Z,2.65
2022-12-23T01:22:21.046Z,2.64
2022-12-23T01:25:14.049Z,2.65
2022-12-23T01:28:00.056Z,2.57
2022-12-23T01:30:53.160Z,2.55
2022-12-23T01:33:52.983Z,2.61
2022-12-23T01:36:53.013Z,2.61
2022-12-23T01:39:53.073Z,2.62
2022-12-23T01:42:52.987Z,2.61
2022-12-23T01:45:53.065Z,2.60
2022-12-23T01:48:53.994Z,2.49
2022-12-23T01:51:54.042Z,2.57
2022-12-23T01:54:55.034Z,2.45
2022-12-23T01:57:56.064Z,2.58
2022-12-23T02:01:14.067Z,2.57
2022-12-23T02:04:17.027Z,2.61
2022-12-23T02:07:35.977Z,2.59
2022-12-23T02:10:40.019Z,2.60
2022-12-23T02:14:16.987Z,2.62
2022-12-23T02:17:29.032Z,2.62
2022-12-23T02:21:06.001Z,2.62
2022-12-23T02:24:43.069Z,2.64
2022-12-23T02:27:48.972Z,2.60
2022-12-23T02:31:02.060Z,2.60
2022-12-23T02:34:15.979Z,2.58
2022-12-23T02:37:20.045Z,2.50
2022-12-23T02:40:24.997Z,2.59
2022-12-23T02:43:27.020Z,2.58
2022-12-23T02:46:19.096Z,2.55
2022-12-23T02:49:23.042Z,2.54
2022-12-23T02:52:26.986Z,2.53
2022-12-23T02:55:30.051Z,2.56
2022-12-23T02:58:32.088Z,2.57
2022-12-23T03:01:32.120Z,2.63
2022-12-23T03:04:32.052Z,2.57
2022-12-23T03:07:35.040Z,2.45
2022-12-23T03:10:43.120Z,2.61
2022-12-23T03:14:02.017Z,2.61
2022-12-23T03:17:17.038Z,2.60
2022-12-23T03:20:23.025Z,2.58
2022-12-23T03:23:35.058Z,2.57
2022-12-23T03:26:50.021Z,2.53
2022-12-23T03:30:01.999Z,2.54
2022-12-23T03:33:08.015Z,2.52
2022-12-23T03:36:15.973Z,2.57
2022-12-23T03:39:17.002Z,2.56
2022-12-23T03:42:26.010Z,2.60
2022-12-23T03:45:39.113Z,2.61
2022-12-23T03:49:12.001Z,2.63
2022-12-23T03:52:21.531Z,2.67
2022-12-23T03:55:28.022Z,2.68
2022-12-23T03:58:29.981Z,2.67
2022-12-23T04:01:38.119Z,2.73
2022-12-23T04:04:56.078Z,2.73
2022-12-23T04:08:00.005Z,2.73
2022-12-23T04:11:00.024Z,2.73
2022-12-23T04:14:01.024Z,2.72
2022-12-23T04:17:01.984Z,2.74
2022-12-23T04:20:01.983Z,2.73
2022-12-23T04:23:02.044Z,2.68
2022-12-23T04:26:01.980Z,2.65
2022-12-23T04:29:02.990Z,2.75
2022-12-23T04:32:02.991Z,2.79
2022-12-23T04:34:56.106Z,2.78
2022-12-23T04:37:56.028Z,2.79
2022-12-23T04:40:59.997Z,2.78
2022-12-23T04:44:00.008Z,2.77
2022-12-23T04:47:01.022Z,2.77
2022-12-23T04:50:00.972Z,2.71
2022-12-23T04:53:00.990Z,2.69
2022-12-23T04:56:04.996Z,2.82
2022-12-23T04:59:05.078Z,2.68
2022-12-23T05:02:05.138Z,2.71
2022-12-23T05:05:05.026Z,2.69
2022-12-23T05:08:04.998Z,2.73
2022-12-23T05:10:57.988Z,2.84
2022-12-23T05:13:37.077Z,2.83
2022-12-23T05:16:24.073Z,2.84
2022-12-23T05:19:03.119Z,2.86
2022-12-23T05:21:50.030Z,2.85
2022-12-23T05:24:35.973Z,2.86
2022-12-23T05:27:36.026Z,2.85
2022-12-23T05:30:35.966Z,2.87
2022-12-23T05:33:36.013Z,2.87
2022-12-23T05:36:35.971Z,2.87
2022-12-23T05:39:36.028Z,2.78
2022-12-23T05:42:36.014Z,2.90
2022-12-23T05:45:36.104Z,2.92
2022-12-23T05:48:35.998Z,2.93
2022-12-23T05:51:36.012Z,2.93
2022-12-23T05:54:36.021Z,2.95
2022-12-23T05:57:35.969Z,2.91
2022-12-23T06:00:36.029Z,2.96
2022-12-23T06:03:36.088Z,2.94
2022-12-23T06:06:35.981Z,2.88
2022-12-23T06:09:36.014Z,2.96
2022-12-23T06:12:29.049Z,2.89
2022-12-23T06:15:28.979Z,2.98
2022-12-23T06:18:28.992Z,2.99
2022-12-23T06:21:29.005Z,2.92
2022-12-23T06:24:28.999Z,2.97
2022-12-23T06:27:29.020Z,2.94
2022-12-23T06:30:28.966Z,2.93
2022-12-23T06:33:28.976Z,2.93
2022-12-23T06:36:28.991Z,2.96
2022-12-23T06:39:29.031Z,2.94
2022-12-23T06:42:28.966Z,2.93
2022-12-23T06:45:28.979Z,2.88
2022-12-23T06:48:28.970Z,2.82
2022-12-23T06:51:29.021Z,2.93
2022-12-23T06:54:29.001Z,2.82
2022-12-23T06:57:29.012Z,2.95
2022-12-23T07:00:29.003Z,2.97
2022-12-23T07:03:29.083Z,2.92
2022-12-23T07:06:28.968Z,3.01
2022-12-23T07:09:29.059Z,3.02
2022-12-23T07:12:29.013Z,3.05
2022-12-23T07:15:28.987Z,3.06
2022-12-23T07:18:29.011Z,3.00
2022-12-23T07:21:30.148Z,3.08
2022-12-23T07:24:30.001Z,3.02
2022-12-23T07:27:29.959Z,3.03
2022-12-23T07:30:29.989Z,3.14
2022-12-23T07:33:29.969Z,3.15
2022-12-23T07:36:30.033Z,3.21
2022-12-23T07:39:30.002Z,3.25
2022-12-23T07:42:46.842Z,3.26
2022-12-23T07:45:47.029Z,3.28
2022-12-23T07:48:47.019Z,3.27
2022-12-23T07:51:47.008Z,3.32
2022-12-23T07:54:46.955Z,3.33
2022-12-23T07:57:46.979Z,3.36
2022-12-23T08:00:46.962Z,3.38
2022-12-23T08:03:47.028Z,3.41
2022-12-23T08:06:49.009Z,3.42
2022-12-23T08:09:48.987Z,3.44
2022-12-23T08:12:49.007Z,3.43
2022-12-23T08:15:48.977Z,3.43
2022-12-23T08:18:50.999Z,3.30
2022-12-23T08:21:51.013Z,3.48
2022-12-23T08:24:50.961Z,3.51
2022-12-23T08:27:51.977Z,3.50
2022-12-23T08:30:52.030Z,3.46
2022-12-23T08:33:52.958Z,3.60
2022-12-23T08:36:52.975Z,3.68
2022-12-23T08:39:53.013Z,3.71
2022-12-23T08:42:52.983Z,3.75
2022-12-23T08:45:53.069Z,3.79
2022-12-23T08:48:53.021Z,3.82
2022-12-23T08:51:52.954Z,3.86
2022-12-23T08:54:53.023Z,3.86
2022-12-23T08:57:52.996Z,3.89
2022-12-23T09:00:53.974Z,3.79
2022-12-23T09:03:54.031Z,3.90
2022-12-23T09:06:55.018Z,3.99
2022-12-23T09:09:54.980Z,4.05
2022-12-23T09:12:57.779Z,4.05
2022-12-23T09:15:59.077Z,4.10
2022-12-23T09:18:58.966Z,4.07
2022-12-23T09:21:59.016Z,4.07
2022-12-23T09:25:04.735Z,4.07
2022-12-23T09:28:05.001Z,4.07
2022-12-23T09:31:05.031Z,4.07
2022-12-23T09:34:06.054Z,4.06
2022-12-23T09:37:05.999Z,4.08
2022-12-23T09:40:05.970Z,4.06
2022-12-23T09:43:42.963Z,4.08
2022-12-23T09:46:46.039Z,4.11
2022-12-23T09:49:47.011Z,4.19
2022-12-23T09:52:53.014Z,4.20
2022-12-23T09:56:07.956Z,4.23
2022-12-23T09:59:29.033Z,4.23
2022-12-23T10:02:40.132Z,4.19
2022-12-23T10:05:48.975Z,4.24
2022-12-23T10:08:51.974Z,4.29
2022-12-23T10:11:55.951Z,4.23
2022-12-23T10:14:56.959Z,4.33
2022-12-23T10:17:56.981Z,4.34
2022-12-23T10:21:02.011Z,4.34
2022-12-23T10:24:04.984Z,4.35
2022-12-23T10:27:09.966Z,4.29
2022-12-23T10:30:26.984Z,4.49
2022-12-23T10:33:35.973Z,4.52
2022-12-23T10:36:54.136Z,4.55
2022-12-23T10:40:04.035Z,4.55
2022-12-23T10:43:15.979Z,4.60
2022-12-23T10:46:37.008Z,4.64
2022-12-23T10:49:52.952Z,4.61
2022-12-23T10:52:54.998Z,4.58
2022-12-23T10:55:54.981Z,4.63
2022-12-23T10:58:57.008Z,4.54
2022-12-23T11:02:01.139Z,4.75
2022-12-23T11:05:01.995Z,4.82
2022-12-23T11:08:01.942Z,4.85
2022-12-23T11:11:01.980Z,4.90
2022-12-23T11:14:01.981Z,4.96
2022-12-23T11:17:01.951Z,5.04
2022-12-23T11:20:02.962Z,5.06
2022-12-23T11:23:08.973Z,5.11
2022-12-23T11:26:22.007Z,5.16
2022-12-23T11:29:25.994Z,5.19
2022-12-23T11:32:32.003Z,5.26
2022-12-23T11:35:40.991Z,5.20
2022-12-23T11:38:40.959Z,5.36
2022-12-23T11:41:43.996Z,5.36
2022-12-23T11:44:48.038Z,5.28
2022-12-23T11:47:54.970Z,5.32
2022-12-23T11:50:54.986Z,5.22
2022-12-23T11:53:55.969Z,5.37
2022-12-23T11:56:56.115Z,5.38
2022-12-23T11:59:56.990Z,5.39
2022-12-23T12:02:59.055Z,5.46
2022-12-23T12:06:21.972Z,5.48
2022-12-23T12:09:25.953Z,5.50
2022-12-23T12:12:31.988Z,5.49
2022-12-23T12:15:55.976Z,5.54
2022-12-23T12:18:56.163Z,5.63
2022-12-23T12:21:55.967Z,5.62
2022-12-23T12:24:58.995Z,5.72
2022-12-23T12:28:04.991Z,5.72
2022-12-23T12:31:15.028Z,5.73
2022-12-23T12:34:43.988Z,5.72
2022-12-23T12:37:56.006Z,5.75
2022-12-23T12:40:58.995Z,5.75
2022-12-23T12:44:12.008Z,5.78
2022-12-23T12:47:52.801Z,5.78
2022-12-23T12:50:58.030Z,5.78
2022-12-23T12:54:09.968Z,5.76
2022-12-23T12:57:10.957Z,5.85
2022-12-23T13:00:11.985Z,5.86
2022-12-23T13:03:37.996Z,5.87
2022-12-23T13:06:43.963Z,5.90
2022-12-23T13:10:12.991Z,5.92
2022-12-23T13:13:20.951Z,5.93
2022-12-23T13:16:50.046Z,5.96
2022-12-23T13:20:08.006Z,6.00
2022-12-23T13:23:41.634Z,5.94
2022-12-23T13:26:37.983Z,5.99
2022-12-23T13:29:54.663Z,6.05
2022-12-23T13:33:15.951Z,6.04
2022-12-23T13:36:44.994Z,6.04
2022-12-23T13:39:58.982Z,5.79
2022-12-23T13:43:04.987Z,6.09
2022-12-23T13:46:05.993Z,6.05
2022-12-23T13:49:30.987Z,6.14
2022-12-23T13:52:37.957Z,6.16
2022-12-23T13:55:49.999Z,6.14
2022-12-23T13:58:51.937Z,6.12
2022-12-23T14:01:55.003Z,6.07
2022-12-23T14:05:16.647Z,6.04
2022-12-23T14:08:31.982Z,6.02
2022-12-23T14:11:39.961Z,6.01
2022-12-23T14:14:39.954Z,5.99
2022-12-23T14:17:48.977Z,5.98
2022-12-23T14:21:16.994Z,5.82
2022-12-23T14:24:40.987Z,5.97
2022-12-23T14:28:08.000Z,5.91
2022-12-23T14:31:08.056Z,5.95
2022-12-23T14:34:16.994Z,5.97
2022-12-23T14:37:34.999Z,5.97
2022-12-23T14:40:52.962Z,5.97
2022-12-23T14:44:01.987Z,5.97
2022-12-23T14:47:02.038Z,5.96
2022-12-23T14:50:02.020Z,5.96
2022-12-23T14:53:03.968Z,5.96
2022-12-23T14:56:05.988Z,5.96
2022-12-23T14:59:05.992Z,5.97
2022-12-23T15:02:07.081Z,5.99
2022-12-23T15:05:08.993Z,6.00
2022-12-23T15:08:08.951Z,5.98
2022-12-23T15:11:09.944Z,6.00
2022-12-23T15:14:12.961Z,5.99
2022-12-23T15:17:12.929Z,6.03
2022-12-23T15:20:37.993Z,5.91
2022-12-23T15:23:37.962Z,6.04
2022-12-23T15:26:51.864Z,6.04
2022-12-23T15:30:04.948Z,6.07
2022-12-23T15:33:43.305Z,6.10
2022-12-23T15:36:44.065Z,5.98
2022-12-23T15:39:46.994Z,6.12
2022-12-23T15:42:46.945Z,6.14
2022-12-23T15:45:52.991Z,6.13
2022-12-23T15:48:52.928Z,6.17
2022-12-23T15:52:08.816Z,6.17
2022-12-23T15:55:25.983Z,6.06
2022-12-23T15:58:36.985Z,6.24
2022-12-23T16:01:37.004Z,6.24
2022-12-23T16:04:41.988Z,6.25
2022-12-23T16:07:45.975Z,6.27
2022-12-23T16:10:45.982Z,6.26
2022-12-23T16:13:49.328Z,6.29
2022-12-23T16:16:53.058Z,6.32
2022-12-23T16:20:06.950Z,6.31
2022-12-23T16:23:07.999Z,6.31
2022-12-23T16:26:07.951Z,6.27
2022-12-23T16:29:11.977Z,6.29
2022-12-23T16:32:11.986Z,6.30
2022-12-23T16:35:22.937Z,6.28
2022-12-23T16:38:31.950Z,6.29
2022-12-23T16:41:32.979Z,6.28
2022-12-23T16:44:32.972Z,6.28
2022-12-23T16:47:32.975Z,6.26
2022-12-23T16:50:32.982Z,6.26
2022-12-23T16:53:32.945Z,6.30
2022-12-23T16:56:34.013Z,6.31
2022-12-23T16:59:33.938Z,6.27
2022-12-23T17:02:36.998Z,6.18
2022-12-23T17:05:36.954Z,6.23
2022-12-23T17:08:36.981Z,6.22
2022-12-23T17:11:49.993Z,6.20
2022-12-23T17:14:49.947Z,6.19
2022-12-23T17:17:49.986Z,6.19
2022-12-23T17:20:49.992Z,6.08
2022-12-23T17:23:49.962Z,6.13
2022-12-23T17:26:49.978Z,6.15
2022-12-23T17:29:49.965Z,6.11
2022-12-23T17:32:49.977Z,6.10
2022-12-23T17:35:50.004Z,6.08
2022-12-23T17:38:50.007Z,6.06
2022-12-23T17:41:50.005Z,6.06
2022-12-23T17:44:42.947Z,6.06
2022-12-23T17:47:25.022Z,6.04
2022-12-23T17:50:10.981Z,6.04
2022-12-23T17:52:56.937Z,6.07
2022-12-23T17:55:56.964Z,5.97
2022-12-23T17:58:57.999Z,6.08
2022-12-23T18:01:57.996Z,6.10
2022-12-23T18:04:58.131Z,6.09
2022-12-23T18:07:57.978Z,6.09
2022-12-23T18:10:57.938Z,6.08
2022-12-23T18:13:58.013Z,6.08
2022-12-23T18:16:58.023Z,6.07
2022-12-23T18:19:57.894Z,6.09
2022-12-23T18:23:02.017Z,6.10
2022-12-23T18:26:01.986Z,5.97
2022-12-23T18:29:01.999Z,6.07
2022-12-23T18:32:02.931Z,6.03
2022-12-23T18:35:02.984Z,6.01
2022-12-23T18:38:02.975Z,6.04
2022-12-23T18:41:02.977Z,6.04
2022-12-23T18:44:02.935Z,6.05
2022-12-23T18:47:02.945Z,6.03
2022-12-23T18:50:02.978Z,6.03
2022-12-23T18:53:02.970Z,6.02
2022-12-23T18:56:02.996Z,5.99
2022-12-23T18:59:02.954Z,5.83
2022-12-23T19:02:03.032Z,5.95
2022-12-23T19:05:02.964Z,5.95
2022-12-23T19:08:02.964Z,5.91
2022-12-23T19:11:03.929Z,5.94
2022-12-23T19:14:03.961Z,5.92
2022-12-23T19:17:06.972Z,5.89
2022-12-23T19:20:06.970Z,5.86
2022-12-23T19:23:06.959Z,5.84
2022-12-23T19:26:07.004Z,5.83
2022-12-23T19:29:06.946Z,5.82
2022-12-23T19:32:06.988Z,5.81
2022-12-23T19:35:06.944Z,5.80
2022-12-23T19:38:06.942Z,5.79
2022-12-23T19:41:10.979Z,5.77
2022-12-23T19:44:10.970Z,5.76
2022-12-23T19:47:10.965Z,5.73
2022-12-23T19:50:10.937Z,5.72
2022-12-23T19:53:10.982Z,5.73
2022-12-23T19:56:28.931Z,5.73
2022-12-23T19:59:28.941Z,5.72
2022-12-23T20:02:29.999Z,5.75
2022-12-23T20:05:29.931Z,5.69
2022-12-23T20:08:29.968Z,5.71
2022-12-23T20:11:32.967Z,5.70
2022-12-23T20:14:34.414Z,5.69
2022-12-23T20:17:33.951Z,5.60
2022-12-23T20:20:33.980Z,5.69
2022-12-23T20:23:33.955Z,5.68
2022-12-23T20:26:33.975Z,5.68
2022-12-23T20:29:33.938Z,5.64
2022-12-23T20:32:33.980Z,5.63
2022-12-23T20:35:33.937Z,5.63
2022-12-23T20:38:33.988Z,5.61
2022-12-23T20:41:38.940Z,5.57
2022-12-23T20:44:39.005Z,5.54
2022-12-23T20:47:39.184Z,5.35
2022-12-23T20:50:38.966Z,5.47
2022-12-23T20:53:38.999Z,5.45
2022-12-23T20:56:38.947Z,5.41
2022-12-23T20:59:39.938Z,5.39
2022-12-23T21:02:40.014Z,5.39
2022-12-23T21:05:39.954Z,5.32
2022-12-23T21:08:39.969Z,5.34
2022-12-23T21:11:43.989Z,5.33
2022-12-23T21:14:43.962Z,5.28
2022-12-23T21:17:43.982Z,5.23
2022-12-23T21:20:43.927Z,5.20
2022-12-23T21:23:43.978Z,5.18
2022-12-23T21:26:47.606Z,5.18
2022-12-23T21:29:43.077Z,5.18
2022-12-23T21:32:42.969Z,5.16
2022-12-23T21:35:43.004Z,5.14
2022-12-23T21:38:51.130Z,5.15
2022-12-23T21:41:51.931Z,5.17
2022-12-23T21:44:51.986Z,5.15
2022-12-23T21:47:51.985Z,5.15
2022-12-23T21:50:51.944Z,5.15
2022-12-23T21:53:52.912Z,5.16
2022-12-23T21:56:53.973Z,5.04
2022-12-23T21:59:53.978Z,5.10
2022-12-23T22:02:53.980Z,5.12
2022-12-23T22:05:53.978Z,5.11
2022-12-23T22:08:54.036Z,5.10
2022-12-23T22:11:53.945Z,5.09
2022-12-23T22:14:53.983Z,5.11
2022-12-23T22:17:54.096Z,5.12
2022-12-23T22:20:53.965Z,5.10
2022-12-23T22:23:53.990Z,5.10
2022-12-23T22:26:53.966Z,5.11
2022-12-23T22:29:53.958Z,5.10
2022-12-23T22:32:53.951Z,5.11
2022-12-23T22:35:53.973Z,5.12
2022-12-23T22:38:53.976Z,5.09
2022-12-23T22:41:53.992Z,5.11
2022-12-23T22:44:53.978Z,5.10
2022-12-23T22:47:53.978Z,5.11
2022-12-23T22:50:53.937Z,5.14
2022-12-23T22:53:54.014Z,5.14
2022-12-23T22:56:53.936Z,5.08
2022-12-23T22:59:53.925Z,5.08
2022-12-23T23:02:53.939Z,5.06
2022-12-23T23:05:53.988Z,5.09
2022-12-23T23:08:54.947Z,5.08
2022-12-23T23:11:54.944Z,5.09
2022-12-23T23:15:00.951Z,5.11
2022-12-23T23:18:00.924Z,5.10
2022-12-23T23:21:00.992Z,5.08
2022-12-23T23:24:00.973Z,5.07
2022-12-23T23:27:00.976Z,4.94
2022-12-23T23:30:00.934Z,5.06
2022-12-23T23:33:00.966Z,5.07
2022-12-23T23:36:01.004Z,5.08
2022-12-23T23:39:00.941Z,5.08
2022-12-23T23:42:00.929Z,4.99
2022-12-23T23:45:00.968Z,5.08
2022-12-23T23:48:00.950Z,5.10
2022-12-23T23:51:00.923Z,5.13
2022-12-23T23:54:00.973Z,5.15
2022-12-23T23:57:00.976Z,5.15
